Pioche, Nevada Weather observations

Data are for observation ending at time listed.
 Day   Time    Ave.   Ave.  Ave.  Vector   Max.   Stn.    Total    Solar   Ave.  
  of    of     Air    Rel.  Wind   Wind    Wind   Baro.  Precip.   Rad.    Soil  
Year   Day     Temp.  Hum.  Speed  Dir.    Gust   Pres.                    Temp. 
2017   (PST)    F      %     mph   deg.    mph     mb.     in.     W/m2     F   
------------------------------------------------------------------------------
  35   21:00   36.4    80    4.0   142      6.6   820.0    0.00       0    37.9
  35   21:10   36.6    80    3.7   142      5.8   820.0    0.00       0    37.8
  35   21:20   36.9    78    2.4   237      3.9   820.0    0.00       0    37.8
  35   21:30   35.4    82    0.2   276      1.5   820.1    0.00       0    37.8
  35   21:40   34.7    83    1.7   287      3.1   820.1    0.00       0    37.8
  35   21:50   34.5    84    1.3   218      3.1   820.1    0.00       0    37.6
  35   22:00   34.6    85    0.2   180      1.6   820.1    0.00       0    37.6
  35   22:10   34.7    84    0.3    84      2.4   820.2    0.00       0    37.6
  35   22:20   34.9    84    2.5   114      3.7   820.3    0.00       0    37.5
  35   22:30   35.1    83    3.0    92      4.9   820.4    0.00       0    37.5
  35   22:40   35.0    83    1.5    52      3.2   820.5    0.00       0    37.5
  35   22:50   34.6    84    0.4    12      2.3   820.6    0.00       0    37.4
  35   23:00   34.3    84    0.6   205      1.8   820.5    0.00       0    37.4
  35   23:10   33.5    85    0.6   117      2.3   820.5    0.00       0    37.4
  35   23:20   32.9    87    2.9   145      3.7   820.5    0.00       0    37.3
  35   23:30   33.1    87    1.0   151      3.0   820.6    0.00       0    37.2
  35   23:40   32.7    86    1.3   204      3.1   820.6    0.00       0    37.2
  35   23:50   32.8    87    0.6   128      2.2   820.6    0.00       0    37.2
  36    0:00   32.5    88    1.1   163      2.5   820.5    0.00       0    37.2
  36    0:10   32.1    88    0.7   312      2.9   820.5    0.00       0    37.2
  36    0:20   32.3    89    1.6   155      3.8   820.5    0.00       0    37.1
  36    0:30   32.3    88    1.6   139      2.9   820.4    0.00       0    37.0
  36    0:40   32.5    88    1.1   126      2.6   820.3    0.00       0    37.0
  36    0:50   32.2    87    0.1   107      1.8   820.3    0.00       0    37.0
  36    1:00   31.9    88    1.0   210      1.8   820.3    0.00       0    37.0
  36    1:10   32.0    89    0.8   209      1.5   820.4    0.00       0    36.9
  36    1:20   31.6    89    2.1   156      3.7   820.4    0.00       0    36.9
  36    1:30   31.8    89    1.9   143      2.9   820.3    0.00       0    36.8
  36    1:40   31.7    88    1.3   149      2.6   820.4    0.00       0    36.8
  36    1:50   31.9    89    2.7   157      3.9   820.3    0.00       0    36.7
  36    2:00   32.0    88    1.2    86      3.5   820.3    0.00       0    36.7
  36    2:10   32.8    88    2.0   135      3.1   820.3    0.00       0    36.7
  36    2:20   32.1    88    0.9   213      2.8   820.3    0.00       0    36.7
  36    2:30   31.3    89    1.3   174      2.3   820.3    0.00       0    36.6
  36    2:40   30.9    90    1.0   166      2.6   820.3    0.00       0    36.6
  36    2:50   30.6    90    0.6   164      2.2   820.2    0.00       0    36.5
  36    3:00   30.2    91    1.0   212      2.3   820.1    0.00       0    36.5
  36    3:10   30.2    91    0.5   178      2.4   820.0    0.00       0    36.5
  36    3:20   30.2    92    0.8   191      1.9   820.0    0.00       0    36.4
  36    3:30   30.2    92    0.1   190      1.2   819.9    0.00       0    36.3
  36    3:40   29.9    92    0.3   190      1.3   819.9    0.00       0    36.3
  36    3:50   29.3    92    0.8   187      1.9   819.8    0.00       0    36.3
  36    4:00   29.5    92    1.5   156      2.5   819.7    0.00       0    36.3
  36    4:10   29.5    92    1.2   167      3.0   819.7    0.00       0    36.2
  36    4:20   29.9    92    1.2   170      3.5   819.6    0.00       0    36.2
  36    4:30   29.1    92    0.7   191      2.0   819.6    0.00       0    36.2
  36    4:40   29.1    92    1.5   162      3.9   819.5    0.00       0    36.1
  36    4:50   29.6    92    3.4   154      4.6   819.5    0.00       0    36.0
  36    5:00   29.4    91    4.3   151      5.7   819.4    0.00       0    36.0
  36    5:10   29.6    91    4.7   153      5.7   819.4    0.00       0    36.0
  36    5:20   29.8    90    3.5   163      5.5   819.5    0.00       0    35.9
  36    5:30   30.1    91    1.4   171      2.8   819.6    0.00       0    35.9
  36    5:40   29.6    90    3.3   157      5.3   819.7    0.00       0    35.9
  36    5:50   29.4    90    4.3   151      5.3   819.7    0.00       0    35.8
  36    6:00   29.4    90    3.3   155      4.8   819.7    0.00       0    35.8
  36    6:10   29.5    90    3.0   154      5.2   819.6    0.00       0    35.8
  36    6:20   30.1    90    1.5   145      2.9   819.6    0.00       0    35.7
  36    6:30   30.2    90    1.9   154      3.0   819.7    0.00       3    35.7
  36    6:40   29.7    90    1.9   168      3.5   819.8    0.00       5    35.7
  36    6:50   29.5    91    4.0   149      5.2   819.9    0.00      18    35.6
  36    7:00   30.4    89    4.0   158      5.0   819.9    0.00      41    35.6
  36    7:10   31.1    88    2.7   151      4.2   820.0    0.00      79    35.6
  36    7:20   32.9    85    1.5   141      2.9   820.1    0.00     132    35.6
  36    7:30   34.7    81    1.8   102      2.6   820.2    0.00     178    35.6
  36    7:40   36.3    80    2.8    88      3.7   820.2    0.00     217    35.6
  36    7:50   37.7    77    1.5    76      3.1   820.2    0.00     231    35.6
  36    8:00   36.0    80    2.7    87      4.5   820.4    0.00     137    35.6
  36    8:10   34.2    86    3.5    70      5.5   820.5    0.00     163    35.6
  36    8:20   34.6    84    2.4    67      5.0   820.5    0.00     204    35.6
  36    8:30   34.1    85    1.0    86      3.4   820.4    0.00     158    35.5
  36    8:40   34.1    83    0.7    55      2.9   820.4    0.00     175    35.5
  36    8:50   33.0    86    2.5    98      4.2   820.4    0.00     181    35.4
  36    9:00   33.7    86    2.2    77      3.9   820.3    0.00     202    35.4
  36    9:10   34.1    85    3.6    70      5.8   820.3    0.00     218    35.4
  36    9:20   34.5    85    2.4    64      4.8   820.4    0.00     180    35.3
  36    9:30   35.1    83    0.7   289      2.6   820.3    0.00     199    35.3
  36    9:40   36.0    81    0.7    77      2.9   820.3    0.00     235    35.3
  36    9:50   36.7    80    0.9    57      3.0   820.3    0.00     276    35.3
  36   10:00   36.9    79    1.7    15      3.9   820.5    0.00     310    35.3
  36   10:10   38.0    77    1.3   322      2.6   820.6    0.00     331    35.3
  36   10:20   38.4    76    1.0   315      3.1   820.5    0.00     347    35.3
  36   10:30   40.5    73    2.3   137      9.2   820.5    0.00     377    35.3
  36   10:40   41.8    71    6.9   132     12.5   820.5    0.00     441    35.3
  36   10:50   42.2    70    6.0   128     11.6   820.4    0.00     441    35.3
  36   11:00   42.5    69    5.0   119      7.8   820.4    0.00     424    35.3
  36   11:10   42.7    68    7.2   117     12.6   820.3    0.00     508    35.3
  36   11:20   43.0    68    6.8   114     16.4   820.1    0.00     482    35.4
  36   11:30   43.0    68    6.4   124     11.4   820.0    0.00     546    35.4
  36   11:40   43.1    67    7.1   131     14.2   819.8    0.00     504    35.5
  36   11:50   43.0    67    6.5   132     14.8   819.6    0.00     561    35.5
  36   12:00   43.5    67    5.8   130     10.9   819.3    0.00     555    35.6
  36   12:10   44.0    65    5.7   129      9.4   819.1    0.00     655    35.7
  36   12:20   44.3    64    5.8   125     10.5   818.9    0.00     648    35.7
  36   12:30   45.1    62    4.2   120      9.0   818.6    0.00     657    35.8
  36   12:40   45.4    60    5.4   128      9.7   818.3    0.00     663    35.9
  36   12:50   45.3    59    7.1   144     10.9   818.2    0.00     633    36.0
  36   13:00   45.3    59    6.0   145     10.2   818.0    0.00     603    36.1
  36   13:10   45.4    57    7.1   146     13.4   817.7    0.00     524    36.2
  36   13:20   45.5    58    7.3   144     12.9   817.5    0.00     468    36.3
  36   13:30   45.3    57    9.2   146     14.6   817.3    0.00     407    36.4
  36   13:40   45.5    57    9.1   144     13.7   817.0    0.00     352    36.5
  36   13:50   45.4    57    9.0   143     15.7   816.8    0.00     294    36.6
  36   14:00   45.3    58    8.2   147     12.8   816.6    0.00     275    36.8
  36   14:10   45.2    58    8.0   146     11.8   816.6    0.00     261    36.8
  36   14:20   45.0    59    7.8   137     12.6   816.4    0.00     179    37.0
  36   14:30   44.9    59    8.0   142     13.4   816.3    0.00     158    37.1
  36   14:40   44.8    60    8.8   139     13.7   816.2    0.00     200    37.2
  36   14:50   44.7    61    8.4   144     13.6   816.1    0.00     219    37.3
  36   15:00   44.9    60   11.1   145     16.4   816.2    0.00     225    37.4
  36   15:10   44.9    61   10.6   145     20.0   816.1    0.00     129    37.5
  36   15:20   44.7    61    8.9   149     17.0   816.0    0.00     137    37.6
  36   15:30   44.6    60    9.2   157     15.7   816.0    0.00     132    37.7
  36   15:40   44.5    59    8.4   151     14.7   815.9    0.00      94    37.7
  36   15:50   44.4    59    8.9   148     15.1   816.0    0.00     106    37.8
  36   16:00   44.5    58   10.3   139     16.7   815.9    0.00      70    37.9
  36   16:10   44.1    59   10.7   143     17.3   815.9    0.00      54    37.9
  36   16:20   44.0    60   11.1   140     17.0   815.9    0.00      43    38.0
  36   16:30   43.7    60   11.6   141     20.2   815.9    0.00      28    38.0
  36   16:40   43.3    61   11.9   143     18.2   816.0    0.00      17    38.0
  36   16:50   43.0    62    9.3   137     19.7   816.0    0.00      11    38.1
  36   17:00   42.8    62    9.9   138     17.3   816.0    0.00       6    38.1
  36   17:10   42.6    61   13.3   141     22.5   816.0    0.00       0    38.2
  36   17:20   42.6    61   12.3   137     22.4   816.1    0.00       0    38.2
  36   17:30   42.5    62   11.9   137     18.3   816.1    0.00       0    38.2
  36   17:40   42.5    62   10.6   132     19.4   816.2    0.00       0    38.2
  36   17:50   42.3    63    8.5   136     20.5   816.1    0.00       0    38.3
  36   18:00   42.3    63   10.5   141     19.4   816.1    0.00       0    38.3
  36   18:10   42.4    63    9.3   134     18.5   816.1    0.00       0    38.3
  36   18:20   42.5    63    9.8   134     15.9   816.1    0.00       0    38.3
  36   18:30   42.3    63    8.2   141     14.2   816.1    0.00       0    38.2
  36   18:40   42.3    62    9.7   143     18.9   816.1    0.00       0    38.3
  36   18:50   42.2    62    7.7   137     16.6   816.0    0.00       0    38.3
  36   19:00   42.1    63    7.3   127     19.0   815.9    0.00       0    38.3
  36   19:10   42.1    63    8.8   118     16.1   816.0    0.00       0    38.2
  36   19:20   41.9    63    7.1   122     12.5   816.0    0.00       0    38.2
  36   19:30   41.9    63    7.9   114     15.1   815.9    0.00       0    38.2
  36   19:40   41.5    64    5.0   127      8.2   815.8    0.00       0    38.2
  36   19:50   41.5    64    5.8   115     15.3   815.7    0.00       0    38.2
  36   20:00   41.5    64    7.3   110     13.4   815.5    0.00       0    38.2
  36   20:10   41.4    65    6.9   106     11.8   815.5    0.00       0    38.2
  36   20:20   40.9    68    6.8   108     10.9   815.6    0.00       0    38.2
  36   20:30   40.8    68    8.0   102     12.3   815.6    0.00       0    38.2
  36   20:40   40.5    69    6.9   110     10.2   815.4    0.00       0    38.2
  36   20:50   40.3    70    6.3   111     13.1   815.3    0.00       0    38.2

Return to Pioche, Nevada graphs page.


Western Regional Climate Center,wrcc@dri.edu